createdAt,value
2023-06-30T00:00:33.560Z,17.02
2023-06-30T00:03:01.488Z,16.98
2023-06-30T00:05:29.321Z,17.80
2023-06-30T00:07:59.768Z,18.05
2023-06-30T00:10:28.907Z,16.40
2023-06-30T00:12:56.573Z,15.88
2023-06-30T00:15:24.228Z,17.30
2023-06-30T00:17:53.909Z,15.95
2023-06-30T00:20:22.483Z,17.00
2023-06-30T00:22:50.258Z,17.58
2023-06-30T00:25:17.961Z,18.40
2023-06-30T00:27:46.957Z,17.70
2023-06-30T00:30:15.420Z,16.88
2023-06-30T00:32:43.070Z,18.05
2023-06-30T00:35:10.883Z,18.23
2023-06-30T00:37:38.735Z,17.98
2023-06-30T00:40:07.326Z,17.45
2023-06-30T00:42:34.977Z,17.45
2023-06-30T00:45:04.130Z,17.02
2023-06-30T00:47:32.144Z,17.80
2023-06-30T00:49:59.872Z,16.83
2023-06-30T00:52:27.646Z,16.83
2023-06-30T00:54:55.348Z,17.23
2023-06-30T00:57:22.980Z,17.17
2023-06-30T00:59:50.628Z,17.40
2023-06-30T01:02:23.337Z,17.98
2023-06-30T01:04:55.251Z,17.52
2023-06-30T01:07:27.006Z,17.63
2023-06-30T01:09:59.197Z,17.05
2023-06-30T01:12:27.239Z,18.15
2023-06-30T01:14:55.642Z,17.95
2023-06-30T01:17:25.914Z,19.17
2023-06-30T01:19:56.613Z,17.77
2023-06-30T01:22:26.793Z,18.88
2023-06-30T01:24:58.990Z,17.98
2023-06-30T01:29:55.319Z,18.35
2023-06-30T01:32:24.696Z,18.15
2023-06-30T01:34:52.681Z,17.52
2023-06-30T01:37:20.341Z,18.45
2023-06-30T01:39:48.024Z,17.17
2023-06-30T01:42:15.823Z,17.83
2023-06-30T01:44:43.800Z,17.88
2023-06-30T01:47:11.969Z,17.45
2023-06-30T01:49:41.070Z,17.02
2023-06-30T01:52:08.887Z,17.33
2023-06-30T01:54:36.609Z,18.15
2023-06-30T01:57:04.612Z,17.90
2023-06-30T01:59:32.253Z,18.60
2023-06-30T02:02:00.022Z,17.10
2023-06-30T02:04:27.768Z,17.83
2023-06-30T02:06:57.077Z,19.17
2023-06-30T02:09:34.471Z,18.58
2023-06-30T02:12:11.201Z,17.95
2023-06-30T02:14:38.838Z,17.70
2023-06-30T02:17:07.789Z,18.25
2023-06-30T02:19:35.462Z,18.80
2023-06-30T02:22:04.788Z,18.92
2023-06-30T02:24:32.426Z,18.52
2023-06-30T02:27:00.060Z,18.58
2023-06-30T02:29:27.701Z,18.40
2023-06-30T02:31:55.433Z,20.13
2023-06-30T02:34:23.168Z,18.90
2023-06-30T02:36:50.867Z,19.23
2023-06-30T02:39:19.865Z,20.42
2023-06-30T02:41:47.467Z,22.95
2023-06-30T02:44:15.115Z,23.63
2023-06-30T02:46:42.738Z,22.65
2023-06-30T02:49:10.380Z,22.92
2023-06-30T02:51:38.180Z,23.15
2023-06-30T02:54:06.063Z,27.63
2023-06-30T02:56:35.038Z,27.42
2023-06-30T02:59:02.860Z,31.77
2023-06-30T03:01:30.590Z,29.55
2023-06-30T03:03:58.333Z,31.05
2023-06-30T03:06:26.056Z,29.00
2023-06-30T03:08:53.701Z,27.38
2023-06-30T03:11:21.309Z,33.10
2023-06-30T03:13:50.609Z,28.50
2023-06-30T03:16:18.282Z,32.55
2023-06-30T03:18:45.955Z,32.45
2023-06-30T03:21:13.580Z,31.55
2023-06-30T03:23:41.611Z,28.73
2023-06-30T03:26:09.298Z,31.88
2023-06-30T03:28:37.774Z,35.15
2023-06-30T03:31:06.815Z,31.50
2023-06-30T03:33:34.561Z,37.20
2023-06-30T03:36:02.202Z,32.42
2023-06-30T03:38:29.836Z,30.27
2023-06-30T03:40:57.505Z,31.67
2023-06-30T03:43:25.231Z,36.10
2023-06-30T03:45:52.869Z,40.25
2023-06-30T03:48:22.682Z,33.30
2023-06-30T03:50:50.615Z,33.13
2023-06-30T03:53:18.267Z,39.17
2023-06-30T03:55:46.281Z,40.40
2023-06-30T03:58:14.089Z,42.03
2023-06-30T04:00:41.722Z,36.22
2023-06-30T04:03:09.871Z,42.92
2023-06-30T04:05:38.997Z,44.88
2023-06-30T04:08:06.816Z,39.67
2023-06-30T04:10:34.782Z,39.75
2023-06-30T04:13:02.434Z,37.17
2023-06-30T04:15:30.031Z,39.83
2023-06-30T04:17:57.744Z,42.05
2023-06-30T04:20:25.384Z,40.75
2023-06-30T04:22:54.395Z,42.25
2023-06-30T04:25:22.236Z,37.80
2023-06-30T04:27:49.853Z,43.28
2023-06-30T04:30:17.476Z,40.45
2023-06-30T04:32:45.209Z,36.25
2023-06-30T04:35:12.848Z,40.42
2023-06-30T04:37:42.233Z,42.00
2023-06-30T04:40:11.752Z,38.90
2023-06-30T04:42:39.901Z,37.30
2023-06-30T04:45:08.617Z,39.33
2023-06-30T04:47:36.322Z,36.10
2023-06-30T04:50:05.308Z,39.08
2023-06-30T04:52:33.011Z,39.33
2023-06-30T04:55:00.614Z,40.53
2023-06-30T04:57:29.614Z,48.00
2023-06-30T04:59:58.034Z,44.58
2023-06-30T05:02:25.701Z,39.83
2023-06-30T05:04:53.370Z,44.00
2023-06-30T05:07:21.568Z,41.65
2023-06-30T05:09:49.295Z,45.15
2023-06-30T05:12:17.123Z,40.70
2023-06-30T05:14:46.118Z,42.78
2023-06-30T05:17:14.121Z,41.83
2023-06-30T05:19:41.833Z,39.53
2023-06-30T05:22:09.522Z,40.47
2023-06-30T05:24:37.130Z,41.42
2023-06-30T05:27:05.247Z,43.50
2023-06-30T05:29:33.299Z,38.65
2023-06-30T05:32:02.373Z,39.83
2023-06-30T05:34:30.118Z,39.17
2023-06-30T05:36:58.001Z,44.40
2023-06-30T05:39:25.651Z,42.42
2023-06-30T05:41:53.277Z,42.60
2023-06-30T05:44:20.938Z,41.20
2023-06-30T05:46:48.627Z,41.03
2023-06-30T05:49:17.642Z,43.83
2023-06-30T05:51:45.325Z,45.95
2023-06-30T05:54:13.795Z,39.92
2023-06-30T05:56:41.486Z,42.45
2023-06-30T05:59:11.442Z,36.47
2023-06-30T06:01:39.642Z,41.00
2023-06-30T06:04:10.690Z,42.05
2023-06-30T06:06:40.013Z,38.93
2023-06-30T06:09:07.873Z,41.05
2023-06-30T06:11:35.580Z,42.30
2023-06-30T06:14:03.197Z,40.22
2023-06-30T06:16:30.840Z,44.20
2023-06-30T06:18:58.525Z,38.35
2023-06-30T06:21:27.508Z,38.20
2023-06-30T06:23:56.564Z,45.83
2023-06-30T06:26:24.225Z,42.17
2023-06-30T06:28:52.457Z,44.42
2023-06-30T06:31:20.304Z,38.42
2023-06-30T06:33:47.999Z,40.65
2023-06-30T06:36:15.629Z,40.20
2023-06-30T06:38:43.313Z,39.70
2023-06-30T06:41:12.280Z,43.70
2023-06-30T06:43:39.901Z,47.47
2023-06-30T06:46:07.705Z,43.75
2023-06-30T06:48:35.347Z,39.33
2023-06-30T06:51:04.458Z,44.17
2023-06-30T06:53:34.010Z,43.55
2023-06-30T06:56:02.952Z,40.45
2023-06-30T06:58:33.206Z,43.92
2023-06-30T07:01:01.144Z,43.35
2023-06-30T07:03:29.903Z,42.25
2023-06-30T07:05:58.121Z,39.55
2023-06-30T07:08:26.082Z,40.60
2023-06-30T07:10:53.771Z,38.42
2023-06-30T07:13:22.676Z,41.42
2023-06-30T07:15:51.989Z,42.78
2023-06-30T07:18:21.037Z,39.55
2023-06-30T07:20:49.180Z,41.20
2023-06-30T07:23:16.963Z,37.75
2023-06-30T07:25:45.301Z,40.45
2023-06-30T07:28:13.724Z,38.78
2023-06-30T07:30:45.226Z,37.80
2023-06-30T07:33:14.536Z,38.72
2023-06-30T07:35:42.458Z,41.38
2023-06-30T07:38:10.700Z,40.42
2023-06-30T07:40:53.731Z,38.80
2023-06-30T07:43:23.240Z,41.05
2023-06-30T07:45:50.933Z,39.95
2023-06-30T07:48:20.183Z,35.35
2023-06-30T07:51:03.414Z,37.63
2023-06-30T07:53:35.741Z,39.72
2023-06-30T07:56:03.413Z,41.80
2023-06-30T07:58:31.036Z,43.10
2023-06-30T08:00:58.669Z,36.47
2023-06-30T08:03:27.805Z,41.60
2023-06-30T08:05:56.577Z,48.10
2023-06-30T08:08:25.214Z,36.53
2023-06-30T08:10:52.883Z,35.50
2023-06-30T08:13:20.524Z,39.83
2023-06-30T08:15:49.498Z,40.17
2023-06-30T08:18:32.474Z,40.10
2023-06-30T08:21:03.864Z,46.33
2023-06-30T08:23:31.749Z,35.58
2023-06-30T08:25:59.445Z,40.10
2023-06-30T08:28:27.119Z,35.83
2023-06-30T08:30:55.050Z,40.33
2023-06-30T08:33:39.934Z,42.00
2023-06-30T08:36:10.408Z,42.35
2023-06-30T08:38:38.084Z,40.78
2023-06-30T08:41:05.852Z,36.05
2023-06-30T08:43:34.055Z,40.78
2023-06-30T08:46:03.483Z,38.72
2023-06-30T08:48:32.332Z,38.22
2023-06-30T08:51:01.131Z,38.90
2023-06-30T08:53:31.811Z,39.38
2023-06-30T08:56:01.005Z,38.85
2023-06-30T08:58:29.158Z,36.63
2023-06-30T09:00:57.591Z,38.97
2023-06-30T09:03:26.014Z,37.35
2023-06-30T09:05:56.589Z,41.45
2023-06-30T09:08:25.491Z,41.15
2023-06-30T09:10:56.190Z,40.60
2023-06-30T09:13:25.662Z,39.25
2023-06-30T09:15:56.748Z,42.45
2023-06-30T09:18:24.486Z,42.13
2023-06-30T09:20:52.166Z,37.38
2023-06-30T09:23:19.800Z,43.22
2023-06-30T09:25:48.338Z,37.92
2023-06-30T09:28:17.751Z,42.10
2023-06-30T09:30:47.014Z,42.60
2023-06-30T09:33:16.025Z,42.75
2023-06-30T09:35:45.231Z,40.65
2023-06-30T09:38:13.729Z,40.10
2023-06-30T09:40:44.403Z,41.47
2023-06-30T09:43:19.261Z,44.45
2023-06-30T09:45:48.965Z,46.40
2023-06-30T09:48:17.174Z,44.38
2023-06-30T09:50:44.862Z,57.25
2023-06-30T09:53:12.619Z,50.97
2023-06-30T09:55:50.650Z,61.25
2023-06-30T09:58:21.523Z,48.85
2023-06-30T10:00:52.575Z,48.72
2023-06-30T10:03:20.458Z,45.13
2023-06-30T10:05:50.530Z,39.40
2023-06-30T10:08:18.655Z,36.90
2023-06-30T10:10:46.378Z,31.38
2023-06-30T10:13:17.012Z,31.05
2023-06-30T10:15:46.753Z,28.00
2023-06-30T10:18:16.299Z,28.77
2023-06-30T10:20:49.087Z,27.60
2023-06-30T10:23:19.021Z,26.88
2023-06-30T10:25:47.154Z,27.80
2023-06-30T10:28:16.064Z,27.80
2023-06-30T10:30:44.350Z,29.05
2023-06-30T10:33:14.046Z,29.80
2023-06-30T10:35:42.422Z,29.45
2023-06-30T10:38:12.652Z,27.15
2023-06-30T10:40:40.379Z,31.67
2023-06-30T10:43:08.293Z,28.52
2023-06-30T10:45:36.856Z,28.88
2023-06-30T10:48:10.412Z,31.23
2023-06-30T10:50:43.532Z,30.95
2023-06-30T10:53:18.474Z,29.70
2023-06-30T10:55:47.016Z,29.70
2023-06-30T10:58:23.828Z,37.40
2023-06-30T11:01:04.539Z,31.23
2023-06-30T11:04:07.522Z,31.80
2023-06-30T11:06:37.512Z,30.90
2023-06-30T11:09:12.559Z,33.15
2023-06-30T11:11:50.025Z,27.45
2023-06-30T11:14:31.829Z,29.30
2023-06-30T11:17:04.300Z,58.10
2023-06-30T11:19:32.063Z,34.58
2023-06-30T11:22:26.450Z,31.15
2023-06-30T11:24:54.493Z,26.30
2023-06-30T11:27:22.717Z,28.52
2023-06-30T11:29:51.346Z,28.50
2023-06-30T11:32:19.843Z,27.20
2023-06-30T11:34:47.895Z,29.00
2023-06-30T11:37:15.548Z,28.63
2023-06-30T11:39:51.639Z,28.27
2023-06-30T11:42:19.536Z,30.55
2023-06-30T11:44:47.207Z,32.58
2023-06-30T11:47:15.482Z,29.58
2023-06-30T11:49:43.322Z,28.25
2023-06-30T11:52:11.356Z,27.50
2023-06-30T11:54:39.040Z,29.95
2023-06-30T11:57:08.228Z,29.98
2023-06-30T11:59:36.125Z,31.27
2023-06-30T12:02:05.626Z,31.80
2023-06-30T12:04:35.431Z,34.58
2023-06-30T12:07:04.437Z,27.08
2023-06-30T12:09:32.222Z,32.60
2023-06-30T12:12:01.435Z,28.45
2023-06-30T12:14:30.613Z,32.42
2023-06-30T12:16:58.356Z,28.98
2023-06-30T12:19:26.823Z,31.55
2023-06-30T12:21:55.948Z,31.35
2023-06-30T12:24:23.902Z,27.48
2023-06-30T12:26:52.732Z,31.58
2023-06-30T12:29:20.865Z,34.65
2023-06-30T12:31:50.181Z,33.95
2023-06-30T12:34:32.695Z,32.30
2023-06-30T12:37:00.488Z,32.72
2023-06-30T12:39:28.356Z,32.13
2023-06-30T12:41:56.123Z,32.90
2023-06-30T12:44:24.081Z,32.00
2023-06-30T12:47:01.666Z,29.05
2023-06-30T12:49:30.009Z,27.13
2023-06-30T12:51:57.779Z,30.35
2023-06-30T12:54:25.783Z,30.02
2023-06-30T12:56:54.814Z,33.63
2023-06-30T12:59:22.672Z,30.60
2023-06-30T13:01:50.379Z,32.92
2023-06-30T13:04:19.393Z,30.50
2023-06-30T13:06:47.058Z,28.63
2023-06-30T13:09:15.022Z,28.17
2023-06-30T13:11:43.150Z,30.20
2023-06-30T13:14:10.865Z,28.63
2023-06-30T13:16:38.581Z,29.83
2023-06-30T13:19:06.334Z,32.28
2023-06-30T13:21:35.316Z,30.60
2023-06-30T13:24:03.000Z,33.47
2023-06-30T13:26:30.645Z,34.67
2023-06-30T13:28:58.280Z,29.45
2023-06-30T13:31:25.918Z,30.45
2023-06-30T13:33:53.640Z,31.25
2023-06-30T13:36:21.260Z,30.80
2023-06-30T13:38:50.256Z,30.08
2023-06-30T13:41:18.076Z,30.42
2023-06-30T13:43:45.725Z,31.60
2023-06-30T13:46:13.475Z,32.70
2023-06-30T13:48:41.667Z,30.55
2023-06-30T13:51:09.340Z,32.40
2023-06-30T13:53:40.021Z,28.98
2023-06-30T13:56:08.990Z,29.85
2023-06-30T13:58:36.643Z,28.58
2023-06-30T14:01:04.309Z,27.95
2023-06-30T14:03:32.012Z,31.05
2023-06-30T14:05:59.836Z,27.15
2023-06-30T14:08:27.618Z,30.17
2023-06-30T14:10:56.497Z,26.40
2023-06-30T14:13:28.491Z,27.60
2023-06-30T14:15:56.172Z,25.83
2023-06-30T14:18:23.865Z,27.15
2023-06-30T14:20:51.483Z,25.40
2023-06-30T14:23:19.126Z,24.13
2023-06-30T14:25:47.123Z,26.38
2023-06-30T14:28:15.056Z,26.30
2023-06-30T14:30:44.310Z,26.90
2023-06-30T14:33:12.019Z,26.80
2023-06-30T14:35:39.675Z,29.00
2023-06-30T14:38:07.746Z,28.60
2023-06-30T14:40:35.713Z,26.08
2023-06-30T14:43:03.456Z,26.58
2023-06-30T14:45:31.420Z,28.02
2023-06-30T14:48:00.499Z,25.88
2023-06-30T14:50:28.296Z,26.52
2023-06-30T14:52:55.991Z,29.23
2023-06-30T14:55:23.943Z,27.67
2023-06-30T14:57:51.996Z,27.95
2023-06-30T15:00:21.047Z,27.50
2023-06-30T15:02:49.402Z,25.50
2023-06-30T15:05:18.527Z,26.52
2023-06-30T15:07:47.716Z,27.45
2023-06-30T15:10:15.829Z,27.92
2023-06-30T15:12:43.487Z,30.33
2023-06-30T15:15:11.646Z,28.75
2023-06-30T15:17:39.352Z,29.20
2023-06-30T15:20:08.438Z,28.15
2023-06-30T15:22:37.590Z,27.17
2023-06-30T15:25:05.761Z,27.70
2023-06-30T15:27:35.625Z,29.60
2023-06-30T15:30:07.072Z,30.58
2023-06-30T15:32:34.879Z,27.55
2023-06-30T15:35:02.566Z,28.20
2023-06-30T15:37:30.245Z,33.13
2023-06-30T15:39:59.216Z,28.65
2023-06-30T15:42:26.904Z,27.65
2023-06-30T15:44:54.572Z,30.73
2023-06-30T15:47:22.247Z,26.40
2023-06-30T15:49:49.881Z,30.10
2023-06-30T15:52:17.641Z,29.83
2023-06-30T15:54:45.325Z,29.50
2023-06-30T15:57:14.299Z,26.40
2023-06-30T15:59:41.932Z,29.75
2023-06-30T16:02:09.568Z,30.60
2023-06-30T16:04:37.257Z,32.47
2023-06-30T16:07:05.244Z,28.92
2023-06-30T16:09:32.936Z,26.52
2023-06-30T16:12:00.605Z,28.80
2023-06-30T16:14:29.667Z,29.80
2023-06-30T16:16:57.347Z,38.50
2023-06-30T16:19:25.017Z,33.33
2023-06-30T16:21:52.658Z,28.90
2023-06-30T16:24:20.293Z,27.58
2023-06-30T16:26:48.018Z,28.88
2023-06-30T16:29:15.696Z,31.83
2023-06-30T16:31:44.690Z,29.77
2023-06-30T16:34:12.445Z,26.35
2023-06-30T16:36:41.091Z,30.17
2023-06-30T16:39:09.239Z,34.03
2023-06-30T16:41:36.893Z,33.63
2023-06-30T16:44:04.644Z,33.28
2023-06-30T16:46:32.368Z,32.08
2023-06-30T16:49:01.340Z,35.70
2023-06-30T16:51:28.956Z,34.00
2023-06-30T16:53:56.568Z,32.63
2023-06-30T16:56:24.231Z,36.78
2023-06-30T16:58:53.628Z,32.42
2023-06-30T17:01:23.024Z,32.72
2023-06-30T17:03:50.746Z,33.70
2023-06-30T17:06:19.821Z,32.63
2023-06-30T17:08:47.468Z,35.72
2023-06-30T17:11:15.095Z,32.65
2023-06-30T17:13:42.735Z,32.60
2023-06-30T17:16:10.351Z,34.80
2023-06-30T17:18:37.987Z,33.55
2023-06-30T17:21:05.620Z,33.72
2023-06-30T17:23:34.595Z,30.65
2023-06-30T17:26:02.230Z,34.08
2023-06-30T17:28:29.947Z,36.75
2023-06-30T17:30:57.644Z,37.80
2023-06-30T17:33:25.350Z,36.88
2023-06-30T17:35:53.026Z,38.75
2023-06-30T17:38:20.693Z,36.97
2023-06-30T17:40:49.671Z,36.70
2023-06-30T17:43:17.368Z,41.95
2023-06-30T17:45:45.596Z,39.60
2023-06-30T17:48:13.842Z,40.67
2023-06-30T17:50:41.647Z,36.72
2023-06-30T17:53:09.352Z,35.15
2023-06-30T17:55:37.071Z,37.25
2023-06-30T17:58:06.065Z,35.15
2023-06-30T18:00:33.715Z,33.45
2023-06-30T18:03:01.370Z,34.58
2023-06-30T18:05:29.054Z,33.67
2023-06-30T18:07:56.697Z,34.47
2023-06-30T18:10:24.543Z,39.50
2023-06-30T18:12:54.979Z,33.65
2023-06-30T18:15:24.242Z,35.30
2023-06-30T18:17:51.919Z,32.42
2023-06-30T18:20:19.639Z,34.70
2023-06-30T18:22:47.266Z,34.15
2023-06-30T18:25:14.969Z,36.17
2023-06-30T18:27:43.150Z,33.10
2023-06-30T18:30:11.366Z,33.72
2023-06-30T18:32:40.396Z,31.67
2023-06-30T18:35:08.735Z,35.15
2023-06-30T18:37:36.433Z,33.70
2023-06-30T18:40:04.615Z,35.20
2023-06-30T18:42:32.289Z,31.95
2023-06-30T18:45:00.277Z,31.70
2023-06-30T18:47:27.967Z,34.67
2023-06-30T18:49:56.953Z,30.85
2023-06-30T18:52:24.611Z,31.00
2023-06-30T18:54:52.284Z,33.22
2023-06-30T18:57:19.924Z,32.22
2023-06-30T18:59:49.459Z,34.67
2023-06-30T19:02:17.208Z,32.28
2023-06-30T19:04:45.115Z,35.85
2023-06-30T19:07:14.100Z,32.35
2023-06-30T19:09:41.749Z,36.15
2023-06-30T19:12:09.993Z,33.75
2023-06-30T19:14:37.608Z,33.50
2023-06-30T19:17:05.470Z,34.28
2023-06-30T19:19:33.213Z,35.55
2023-06-30T19:22:01.078Z,31.38
2023-06-30T19:24:30.098Z,34.63
2023-06-30T19:26:57.720Z,40.20
2023-06-30T19:29:25.352Z,33.53
2023-06-30T19:31:53.048Z,35.22
2023-06-30T19:34:20.768Z,37.95
2023-06-30T19:36:48.567Z,37.60
2023-06-30T19:39:16.209Z,38.40
2023-06-30T19:41:45.231Z,37.53
2023-06-30T19:44:12.872Z,34.47
2023-06-30T19:46:40.568Z,36.40
2023-06-30T19:49:08.378Z,39.88
2023-06-30T19:51:35.996Z,44.08
2023-06-30T19:54:03.687Z,41.17
2023-06-30T19:56:31.329Z,45.38
2023-06-30T19:59:00.478Z,44.08
2023-06-30T20:01:28.132Z,45.33
2023-06-30T20:03:55.906Z,40.78
2023-06-30T20:06:23.555Z,41.20
2023-06-30T20:08:51.307Z,44.20
2023-06-30T20:11:18.951Z,45.90
2023-06-30T20:13:48.702Z,39.40
2023-06-30T20:16:17.766Z,39.08
2023-06-30T20:18:45.408Z,40.22
2023-06-30T20:21:13.015Z,49.00
2023-06-30T20:23:40.642Z,39.08
2023-06-30T20:26:08.275Z,38.35
2023-06-30T20:28:36.932Z,36.30
2023-06-30T20:31:04.676Z,41.55
2023-06-30T20:33:34.095Z,45.83
2023-06-30T20:36:01.781Z,39.33
2023-06-30T20:38:29.409Z,37.35
2023-06-30T20:40:57.012Z,38.88
2023-06-30T20:43:24.693Z,39.40
2023-06-30T20:45:52.318Z,38.20
2023-06-30T20:48:19.948Z,34.15
2023-06-30T20:50:49.173Z,31.17
2023-06-30T20:53:17.193Z,38.72
2023-06-30T20:55:44.838Z,38.33
2023-06-30T20:58:12.504Z,32.15
2023-06-30T21:00:40.349Z,37.08
2023-06-30T21:03:08.122Z,37.00
2023-06-30T21:05:35.802Z,38.63
2023-06-30T21:08:05.085Z,28.63
2023-06-30T21:10:32.758Z,29.23
2023-06-30T21:13:00.993Z,32.08
2023-06-30T21:15:29.145Z,28.38
2023-06-30T21:17:56.974Z,32.83
2023-06-30T21:20:24.684Z,30.98
2023-06-30T21:22:52.328Z,33.50
2023-06-30T21:25:21.318Z,32.00
2023-06-30T21:27:48.958Z,33.83
2023-06-30T21:30:16.657Z,33.38
2023-06-30T21:32:45.346Z,35.80
2023-06-30T21:35:13.108Z,33.45
2023-06-30T21:37:40.749Z,34.65
2023-06-30T21:40:10.280Z,35.13
2023-06-30T21:42:39.341Z,30.08
2023-06-30T21:45:08.188Z,34.03
2023-06-30T21:47:35.847Z,29.13
2023-06-30T21:50:03.822Z,30.27
2023-06-30T21:52:31.466Z,29.88
2023-06-30T21:54:59.112Z,30.77
2023-06-30T21:57:26.749Z,30.30
2023-06-30T21:59:55.710Z,31.08
2023-06-30T22:02:23.574Z,32.15
2023-06-30T22:04:51.416Z,27.38
2023-06-30T22:07:19.538Z,28.85
2023-06-30T22:09:47.195Z,29.63
2023-06-30T22:12:14.878Z,31.10
2023-06-30T22:14:42.521Z,33.53
2023-06-30T22:17:11.511Z,32.15
2023-06-30T22:19:39.133Z,33.60
2023-06-30T22:22:07.730Z,30.48
2023-06-30T22:24:35.399Z,32.40
2023-06-30T22:27:03.046Z,34.25
2023-06-30T22:29:30.698Z,34.75
2023-06-30T22:31:58.316Z,32.00
2023-06-30T22:34:27.573Z,31.73
2023-06-30T22:36:55.269Z,31.80
2023-06-30T22:39:22.904Z,38.78
2023-06-30T22:41:50.560Z,32.80
2023-06-30T22:44:18.174Z,34.42
2023-06-30T22:46:45.858Z,36.72
2023-06-30T22:49:13.485Z,34.85
2023-06-30T22:51:42.494Z,35.97
2023-06-30T22:54:10.136Z,39.95
2023-06-30T22:56:38.133Z,37.72
2023-06-30T22:59:05.740Z,41.83
2023-06-30T23:01:33.413Z,37.15
2023-06-30T23:04:01.077Z,36.63
2023-06-30T23:06:29.117Z,40.60
2023-06-30T23:08:58.075Z,40.63
2023-06-30T23:11:25.712Z,41.63
2023-06-30T23:13:53.396Z,38.80
2023-06-30T23:16:21.055Z,42.42
2023-06-30T23:18:48.788Z,44.33
2023-06-30T23:21:19.046Z,51.35
2023-06-30T23:23:47.047Z,43.92
2023-06-30T23:26:16.734Z,48.50
2023-06-30T23:28:50.163Z,44.05
2023-06-30T23:31:20.575Z,50.78
2023-06-30T23:33:51.655Z,51.25
2023-06-30T23:36:19.715Z,50.70
2023-06-30T23:38:47.369Z,51.97
2023-06-30T23:41:16.862Z,50.83
2023-06-30T23:43:44.547Z,51.50
2023-06-30T23:46:19.164Z,51.80
2023-06-30T23:48:47.211Z,56.45
2023-06-30T23:51:15.003Z,50.85
2023-06-30T23:53:42.649Z,56.90
2023-06-30T23:56:10.345Z,50.72
2023-06-30T23:58:39.506Z,57.03
